Jump to content


KLM FLIGHT KL862 FLOWN ON 08-18-2017 BY CAPTAIN JIM BOERMAN

Pilot StatsCaptain Jim Boerman (LDP136) • 4,648.3 total hours • 1,417 total flights [View Logbook]
FLIGHT DETAILS
StatusReceived and approved on 2017-08-19 at 07:08:54
Origin AirportNarita Intl (RJAA) • Tokyo, Japan (135 feet MSL)
Filed Flight PlanFLIGHT PLANNER OFFLINE
Destination AirportSchiphol (EHAM) • Amsterdam, Netherlands (-11 feet MSL)
Alternate AirportBrussels National (EBBR) • Brussels, Belgium (184 feet MSL)
AirlineKLM
AircraftBoeing 777-300ER (77W / B777-300ER)
FS Aircraft UsedPMDG 777-306ER KLM Royal Dutch Airlines (PH-BVA | 2016)
Cruising AltitudeFL340
Distance Flown5,032 nautical miles
Passengers Onboard169 passengers (43.78% full)
DEPARTURE DETAILS
Time Out09:06:15
Taxi Data698,374 lbs total with 226,610 lbs of fuel onboard
Takeoff Data09:18:44 (12 minutes after leaving gate/ramp) • 696,234 lbs total • 10° pitch at 204 knots
Departure METARRJAA 182230Z VRB01KT 3500 BR FEW001 SCT010 BKN030 25/25 Q1011 TEMPO FEW003 BKN005
ARRIVAL DETAILS
Landing Data13:55:46 • 492,734 lbs total • 4° pitch doing 136 knots at a rate of -153.02 feet/minute with 20,117 lbs of fuel onboard
Time In14:05:34 (10 minutes after landing)
Ramp Weight491,881 lbs total
Total Fuel Used206,493 lbs
Total Block Time11:29:58 (11.5 hours) while 22 minutes were spent on the ground
Arrival METAREHAM 191155Z 27019KT 9999 FEW025 18/12 Q1015 NOSIG
MISCELLANEOUS DETAILS
LiveDISPATCH Version4.8.3.1
FS Version
FSUIPC Version4.93
OS VersionWindows 7 32-bit
Screen Resolution1920 x 1080
Pilot's CommentsNo Comments Reported
FLIGHT MAP